Flight Track Log - Related Links

Times and Time Zones

All times are in EDT time to prevent confusion due to time zone crossing. See the GJS3706 flight status page for this flight to view local times or setup timezone preferences in your user account.

Time Position Orientation Groundspeed Altitude Reporting Facility
EDT Latitude Longitude Course Direction KTS MPH feet Rate Location/Type
Mon 12:10:43 PM 42.7350 -73.8844 296° West 244 281 3,700  Level Boston Center
Mon 12:11:43 PM 42.7928 -73.9339 328° Northwest 285 328 6,000 2,400 Climbing Boston Center
Mon 12:12:00 PM 43.0119 -74.1068 279° West  Level FlightAware Approximate
Mon 12:12:43 PM 42.8608 -73.9950 327° Northwest 291 335 8,500  Level Boston Center
Mon 12:13:00 PM 43.0230 -74.2386 276° West  Level FlightAware Approximate
Mon 12:14:00 PM 43.0325 -74.3708 276° West  Level FlightAware Approximate
Mon 12:14:00 PM 42.8604 -74.1649 279° West  Level Estimated
Mon 12:14:43 PM 43.0072 -74.1094 279° West 327 376 12,400  Level Boston Center
Mon 12:15:00 PM 43.0347 -74.5033 275° West  Level FlightAware Approximate
Mon 12:15:43 PM 43.0742 -74.2194 310° West 347 399 14,500  Level Boston Center
Mon 12:16:43 PM 43.0786 -74.3389 273° West 325 374 15,900 1,550 Climbing Boston Center
Mon 12:17:43 PM 43.0864 -74.4900 274° West 353 406 17,600 1,450 Climbing Boston Center
Mon 12:18:43 PM 43.0922 -74.6208 274° West 379 436 18,800 1,200 Climbing Boston Center
Mon 12:19:43 PM 43.1019 -74.7692 275° West 391 450 20,000 1,200 Climbing Boston Center
Mon 12:20:43 PM 43.1072 -74.9172 273° West 391 450 21,200 1,100 Climbing Boston Center
Mon 12:21:43 PM 43.1142 -75.0683 274° West 391 450 22,200 1,000 Climbing Boston Center
Mon 12:22:43 PM 43.1208 -75.2250 273° West 407 468 23,200 1,000 Climbing Boston Center
Mon 12:23:43 PM 43.1269 -75.3989 273° West 412 474 24,200 1,020 Climbing Boston Center
Mon 12:25:16 PM 43.1386 -75.6461 274° West 405 466 25,800 1,013 Climbing Cleveland Center
Mon 12:26:17 PM 43.1453 -75.8050 273° West 410 472 26,800 1,050 Climbing Cleveland Center
Mon 12:27:16 PM 43.1517 -75.9611 273° West 421 484 27,900 1,059 Climbing Cleveland Center
Mon 12:28:16 PM 43.1581 -76.1231 273° West 421 484 28,900 1,000 Climbing Cleveland Center
Mon 12:29:16 PM 43.1617 -76.2792 272° West 421 484 29,900 1,000 Climbing Cleveland Center
Mon 12:30:16 PM 43.1614 -76.4389 270° West 421 484 30,900 1,000 Climbing Cleveland Center
Mon 12:31:16 PM 43.1606 -76.5925 270° West 416 479 31,900 950 Climbing Cleveland Center
Mon 12:32:16 PM 43.1589 -76.7294 269° West 416 479 32,800 950 Climbing Cleveland Center
Mon 12:33:16 PM 43.1597 -76.8831 270° West 411 473 33,800 950 Climbing Cleveland Center
Mon 12:34:16 PM 43.1581 -77.0311 269° West 405 466 34,700 850 Climbing Cleveland Center
Mon 12:35:16 PM 43.1564 -77.1850 269° West 405 466 35,500 800 Climbing Cleveland Center
Mon 12:36:16 PM 43.1567 -77.3331 270° West 405 466 36,300 800 Climbing Cleveland Center
Mon 12:37:16 PM 43.1564 -77.4811 270° West 405 466 37,100 700 Climbing Cleveland Center
Mon 12:38:16 PM 43.1525 -77.6464 268° West 405 466 37,700 450 Climbing Cleveland Center
Mon 12:39:16 PM 43.1539 -77.7942 271° West 405 466 38,000 150 Climbing Cleveland Center
Mon 12:40:16 PM 43.1492 -77.9453 268° West 405 466 38,000  Level Cleveland Center
Mon 12:41:16 PM 43.1486 -78.1019 270° West 405 466 38,000  Level Cleveland Center
Mon 12:43:16 PM 43.1425 -78.4236 269° West 420 483 38,000  Level Cleveland Center
Mon 12:44:16 PM 43.1369 -78.5861 267° West 425 489 38,000  Level Cleveland Center
Mon 12:46:16 PM 43.1275 -78.9106 268° West 425 489 38,000  Level Cleveland Center
Mon 12:47:16 PM 43.1236 -79.0728 268° West 425 489 38,000  Level Cleveland Center
Mon 12:48:13 PM 43.1167 -79.2000 266° West 420 483 38,000  Level Toronto Center
Mon 12:49:13 PM 43.1000 -79.3667 262° West 430 495 38,000  Level Toronto Center
Mon 12:50:13 PM 43.1000 -79.5167 270° West 430 495 38,000  Level Toronto Center
Mon 12:51:13 PM 43.0833 -79.6833 262° West 430 495 38,000  Level Toronto Center
Mon 12:53:13 PM 43.0833 -80.0167 270° West 430 495 38,000  Level Toronto Center
Mon 12:54:13 PM 43.0667 -80.1833 262° West 430 495 38,000  Level Toronto Center
Mon 12:55:13 PM 43.0667 -80.3333 270° West 430 495 38,000  Level Toronto Center
Mon 12:56:13 PM 43.0667 -80.5000 270° West 430 495 38,000  Level Toronto Center
Mon 12:57:13 PM 43.0500 -80.6833 263° West 430 495 38,000  Level Toronto Center
Mon 12:58:13 PM 43.0333 -80.8167 260° West 430 495 38,000  Level Toronto Center
Mon 12:59:13 PM 43.0333 -81.0000 270° West 430 495 38,000  Level Toronto Center
Mon 01:01:13 PM 43.0167 -81.3500 266° West 440 506 38,000  Level Toronto Center
Mon 01:02:13 PM 43.0167 -81.5000 270° West 440 506 38,000  Level Toronto Center
Mon 01:03:13 PM 43.0167 -81.6667 270° West 440 506 38,000  Level Toronto Center
Mon 01:04:13 PM 43.0167 -81.8167 270° West 440 506 38,000  Level Toronto Center
Mon 01:05:13 PM 43.0000 -82.0000 263° West 440 506 38,000  Level Toronto Center
Mon 01:06:13 PM 43.0000 -82.1667 270° West 440 506 38,000  Level Toronto Center
Mon 01:07:13 PM 43.0000 -82.3500 270° West 440 506 38,000  Level Toronto Center
Mon 01:08:13 PM 43.0000 -82.5000 270° West 440 506 38,000 -150 Level Toronto Center
Mon 01:09:13 PM 42.9833 -82.6667 262° West 440 506 37,700 -341 Descending Toronto Center
Mon 01:10:16 PM 42.9969 -82.8314 277° West 440 506 37,300 -459 Descending Cleveland Center
Mon 01:12:16 PM 42.9858 -83.1544 267° West 440 506 36,300 -500 Descending Cleveland Center
Mon 01:13:16 PM 42.9822 -83.3133 268° West 435 501 35,800 -550 Descending Cleveland Center
Mon 01:14:16 PM 42.9756 -83.4975 267° West 440 506 35,200 -814 Descending Cleveland Center
Mon 01:16:13 PM 42.9500 -83.8167 264° West 450 518 33,400 -1,119 Descending Toronto Center
Mon 01:17:13 PM 42.9333 -83.9833 262° West 440 506 31,900 -1,450 Descending Toronto Center
Mon 01:18:13 PM 42.9167 -84.1333 261° West 440 506 30,500 -1,512 Descending Toronto Center
Mon 01:19:16 PM 42.9078 -84.3308 267° West 445 512 28,800 -1,477 Descending Cleveland Center
Mon 01:20:23 PM 42.8919 -84.5003 263° West 431 496 27,300 -949 Descending Chicago Center
Mon 01:22:13 PM 42.8500 -84.7667 258° West 410 472 26,000 -419 Descending Toronto Center
Mon 01:23:29 PM 42.8442 -84.9622 268° West 415 478 26,000  Level Chicago Center
Mon 01:24:31 PM 42.8261 -85.1244 261° West 431 496 26,000  Level Chicago Center
Mon 01:25:33 PM 42.8039 -85.3322 262° West 460 529 26,000 -432 Level Chicago Center
Mon 01:26:36 PM 42.7836 -85.5103 261° West 473 544 25,100 -1,056 Descending Chicago Center
Mon 01:27:38 PM 42.7533 -85.6844 257° West 471 542 23,800 -1,200 Descending Chicago Center
Mon 01:28:41 PM 42.7217 -85.8536 256° West 462 532 22,600 -1,161 Descending Chicago Center
Mon 01:29:42 PM 42.6931 -86.0164 257° West 444 511 21,400 -1,171 Descending Chicago Center
Mon 01:30:44 PM 42.6650 -86.1675 256° West 417 480 20,200 -968 Descending Chicago Center
Mon 01:31:46 PM 42.6375 -86.3169 256° West 406 467 19,400 -1,210 Descending Chicago Center
Mon 01:32:48 PM 42.6086 -86.4617 255° West 399 459 17,700 -1,790 Descending Chicago Center
Mon 01:33:50 PM 42.5750 -86.6378 256° West 402 463 15,700 -1,839 Descending Chicago Center
Mon 01:34:52 PM 42.5483 -86.7803 256° West 395 455 13,900 -1,742 Descending Chicago Center
Mon 01:35:54 PM 42.5083 -86.9156 248° West 389 448 12,100 -1,597 Descending Chicago Center
Mon 01:36:56 PM 42.4725 -87.0494 250° West 383 441 10,600 -737 Descending Chicago Center
Mon 01:38:45 PM 42.4000 -87.3000 249° West 374 430 10,000 -206 Descending Chicago TRACON
Mon 01:39:51 PM 42.3667 -87.4333 251° West 301 346 10,000  Level Chicago TRACON
Mon 01:40:51 PM 42.3333 -87.5167 242° Southwest 266 306 10,000 -309 Level Chicago TRACON
Mon 01:42:07 PM 42.2839 -87.5925 229° Southwest 242 278 9,300 -826 Descending Chicago Center
Mon 01:43:09 PM 42.2331 -87.6458 218° Southwest 231 266 8,100 -1,113 Descending Chicago Center
Mon 01:44:11 PM 42.1861 -87.6953 218° Southwest 217 250 7,000 -532 Descending Chicago Center
Mon 01:45:13 PM 42.1283 -87.7550 217° Southwest 219 252 7,000  Level Chicago Center
Mon 01:46:15 PM 42.0922 -87.8175 232° Southwest 224 258 7,000  Level Chicago Center
Mon 01:47:17 PM 42.0914 -87.9017 269° West 226 260 7,000  Level Chicago Center
Mon 01:48:19 PM 42.0911 -87.9853 270° West 226 260 7,000 -97 Level Chicago Center
Mon 01:49:21 PM 42.0897 -88.0850 269° West 225 259 6,800 -774 Descending Chicago Center
Mon 01:50:23 PM 42.0789 -88.1667 260° West 224 258 5,400 -1,355 Descending Chicago Center
Mon 01:51:25 PM 42.0450 -88.2156 227° Southwest 221 254 4,000 -677 Descending Chicago Center
Mon 01:52:27 PM 41.9950 -88.2042 170° South 197 227 4,000 -48 Level Chicago Center
Mon 01:53:29 PM 41.9825 -88.1458 106° East 175 201 3,900 -435 Descending Chicago Center
Mon 01:54:31 PM 41.9825 -88.0858 90° East 164 189 3,100 -774 Descending Chicago Center

Login

Don't have an account? Register now (free) for customized features, flight alerts, and more!